createdAt,value
2017-08-21T00:00:43.661Z,1014.7
2017-08-21T00:01:45.040Z,1014.6
2017-08-21T00:02:46.419Z,1014.7
2017-08-21T00:03:47.811Z,1014.7
2017-08-21T00:04:49.195Z,1014.7
2017-08-21T00:05:50.571Z,1014.7
2017-08-21T00:06:51.956Z,1014.7
2017-08-21T00:07:53.361Z,1014.7
2017-08-21T00:08:54.742Z,1014.7
2017-08-21T00:09:56.124Z,1014.7
2017-08-21T00:10:57.495Z,1014.7
2017-08-21T00:11:58.874Z,1014.7
2017-08-21T00:13:00.254Z,1014.7
2017-08-21T00:14:01.629Z,1014.6
2017-08-21T00:15:03.021Z,1014.6
2017-08-21T00:16:04.395Z,1014.6
2017-08-21T00:17:05.774Z,1014.6
2017-08-21T00:18:07.154Z,1014.6
2017-08-21T00:19:08.540Z,1014.7
2017-08-21T00:20:09.916Z,1014.6
2017-08-21T00:21:11.299Z,1014.7
2017-08-21T00:22:12.675Z,1014.6
2017-08-21T00:23:14.050Z,1014.7
2017-08-21T00:24:15.427Z,1014.6
2017-08-21T00:25:16.828Z,1014.6
2017-08-21T00:26:18.221Z,1014.6
2017-08-21T00:27:19.599Z,1014.6
2017-08-21T00:28:20.976Z,1014.6
2017-08-21T00:29:22.352Z,1014.6
2017-08-21T00:30:23.736Z,1014.6
2017-08-21T00:31:25.113Z,1014.6
2017-08-21T00:32:26.490Z,1014.6
2017-08-21T00:33:27.865Z,1014.6
2017-08-21T00:34:29.254Z,1014.6
2017-08-21T00:35:30.628Z,1014.7
2017-08-21T00:36:32.005Z,1014.7
2017-08-21T00:37:33.387Z,1014.7
2017-08-21T00:38:34.763Z,1014.7
2017-08-21T00:39:36.141Z,1014.7
2017-08-21T00:40:37.516Z,1014.7
2017-08-21T00:41:38.907Z,1014.6
2017-08-21T00:42:40.280Z,1014.6
2017-08-21T00:43:41.660Z,1014.6
2017-08-21T00:44:43.033Z,1014.6
2017-08-21T00:45:44.417Z,1014.6
2017-08-21T00:46:45.793Z,1014.6
2017-08-21T00:47:47.170Z,1014.6
2017-08-21T00:48:48.564Z,1014.6
2017-08-21T00:49:49.955Z,1014.6
2017-08-21T00:50:51.343Z,1014.6
2017-08-21T00:51:52.786Z,1014.6
2017-08-21T00:52:54.396Z,1014.6
2017-08-21T00:53:55.998Z,1014.5
2017-08-21T00:54:57.446Z,1014.5
2017-08-21T00:55:59.209Z,1014.5
2017-08-21T00:57:00.604Z,1014.5
2017-08-21T00:58:01.981Z,1014.5
2017-08-21T00:59:03.360Z,1014.5
2017-08-21T01:00:04.752Z,1014.5
2017-08-21T01:01:06.123Z,1014.5
2017-08-21T01:02:07.501Z,1014.5
2017-08-21T01:03:08.879Z,1014.5
2017-08-21T01:04:10.254Z,1014.5
2017-08-21T01:05:11.627Z,1014.5
2017-08-21T01:06:13.010Z,1014.5
2017-08-21T01:07:14.450Z,1014.5
2017-08-21T01:08:15.820Z,1014.5
2017-08-21T01:09:17.197Z,1014.5
2017-08-21T01:10:18.581Z,1014.5
2017-08-21T01:11:19.954Z,1014.5
2017-08-21T01:12:21.331Z,1014.5
2017-08-21T01:13:22.709Z,1014.5
2017-08-21T01:14:24.083Z,1014.5
2017-08-21T01:15:25.462Z,1014.5
2017-08-21T01:16:26.839Z,1014.5
2017-08-21T01:17:28.223Z,1014.5
2017-08-21T01:18:29.598Z,1014.5
2017-08-21T01:19:30.971Z,1014.5
2017-08-21T01:20:32.350Z,1014.5
2017-08-21T01:21:33.766Z,1014.5
2017-08-21T01:22:35.186Z,1014.5
2017-08-21T01:23:36.561Z,1014.5
2017-08-21T01:24:37.935Z,1014.5
2017-08-21T01:25:39.311Z,1014.5
2017-08-21T01:26:40.688Z,1014.5
2017-08-21T01:27:42.084Z,1014.5
2017-08-21T01:28:43.467Z,1014.5
2017-08-21T01:29:44.832Z,1014.5
2017-08-21T01:30:46.241Z,1014.5
2017-08-21T01:31:47.638Z,1014.5
2017-08-21T01:32:49.023Z,1014.5
2017-08-21T01:33:50.396Z,1014.5
2017-08-21T01:34:51.784Z,1014.5
2017-08-21T01:35:53.157Z,1014.5
2017-08-21T01:36:54.611Z,1014.5
2017-08-21T01:37:56.024Z,1014.5
2017-08-21T01:38:57.665Z,1014.5
2017-08-21T01:39:59.037Z,1014.4
2017-08-21T01:41:00.430Z,1014.5
2017-08-21T01:42:01.831Z,1014.5
2017-08-21T01:43:03.258Z,1014.5
2017-08-21T01:44:04.648Z,1014.5
2017-08-21T01:45:06.046Z,1014.5
2017-08-21T01:46:07.461Z,1014.5
2017-08-21T01:47:08.858Z,1014.5
2017-08-21T01:48:10.276Z,1014.5
2017-08-21T01:49:11.681Z,1014.5
2017-08-21T01:50:13.145Z,1014.5
2017-08-21T01:51:14.525Z,1014.5
2017-08-21T01:52:15.943Z,1014.5
2017-08-21T01:53:17.324Z,1014.5
2017-08-21T01:54:18.909Z,1014.5
2017-08-21T01:55:20.306Z,1014.6
2017-08-21T01:56:21.714Z,1014.6
2017-08-21T01:57:23.143Z,1014.5
2017-08-21T01:58:24.550Z,1014.6
2017-08-21T01:59:25.932Z,1014.5
2017-08-21T02:00:27.310Z,1014.5
2017-08-21T02:01:28.684Z,1014.5
2017-08-21T02:02:30.106Z,1014.5
2017-08-21T02:03:31.495Z,1014.5
2017-08-21T02:04:32.870Z,1014.5
2017-08-21T02:05:34.246Z,1014.5
2017-08-21T02:06:35.640Z,1014.5
2017-08-21T02:07:37.000Z,1014.5
2017-08-21T02:08:38.376Z,1014.5
2017-08-21T02:09:39.768Z,1014.5
2017-08-21T02:10:41.139Z,1014.5
2017-08-21T02:11:42.520Z,1014.4
2017-08-21T02:12:43.938Z,1014.4
2017-08-21T02:13:45.323Z,1014.5
2017-08-21T02:14:46.698Z,1014.5
2017-08-21T02:15:48.071Z,1014.4
2017-08-21T02:16:49.445Z,1014.4
2017-08-21T02:17:50.822Z,1014.4
2017-08-21T02:18:52.194Z,1014.4
2017-08-21T02:19:53.574Z,1014.4
2017-08-21T02:20:54.951Z,1014.4
2017-08-21T02:21:56.329Z,1014.4
2017-08-21T02:22:57.704Z,1014.4
2017-08-21T02:23:59.075Z,1014.4
2017-08-21T02:25:00.449Z,1014.4
2017-08-21T02:26:01.823Z,1014.4
2017-08-21T02:27:03.202Z,1014.4
2017-08-21T02:28:04.582Z,1014.4
2017-08-21T02:29:05.963Z,1014.4
2017-08-21T02:30:07.341Z,1014.4
2017-08-21T02:31:08.712Z,1014.5
2017-08-21T02:32:10.089Z,1014.4
2017-08-21T02:33:11.465Z,1014.4
2017-08-21T02:34:12.841Z,1014.4
2017-08-21T02:35:14.216Z,1014.4
2017-08-21T02:36:15.595Z,1014.4
2017-08-21T02:37:16.971Z,1014.4
2017-08-21T02:38:18.349Z,1014.3
2017-08-21T02:39:19.734Z,1014.3
2017-08-21T02:40:21.109Z,1014.4
2017-08-21T02:41:22.491Z,1014.4
2017-08-21T02:42:24.055Z,1014.4
2017-08-21T02:43:25.465Z,1014.3
2017-08-21T02:44:26.835Z,1014.3
2017-08-21T02:45:28.210Z,1014.3
2017-08-21T02:46:29.587Z,1014.3
2017-08-21T02:47:30.961Z,1014.3
2017-08-21T02:48:32.336Z,1014.3
2017-08-21T02:49:33.715Z,1014.3
2017-08-21T02:50:35.189Z,1014.2
2017-08-21T02:51:36.565Z,1014.2
2017-08-21T02:52:37.944Z,1014.2
2017-08-21T02:53:39.312Z,1014.2
2017-08-21T02:54:40.699Z,1014.2
2017-08-21T02:55:42.075Z,1014.2
2017-08-21T02:56:43.451Z,1014.2
2017-08-21T02:57:44.833Z,1014.2
2017-08-21T02:58:46.207Z,1014.2
2017-08-21T02:59:47.581Z,1014.2
2017-08-21T03:00:48.956Z,1014.2
2017-08-21T03:01:50.334Z,1014.2
2017-08-21T03:02:51.710Z,1014.2
2017-08-21T03:03:53.085Z,1014.2
2017-08-21T03:04:54.462Z,1014.2
2017-08-21T03:05:55.866Z,1014.2
2017-08-21T03:06:57.283Z,1014.2
2017-08-21T03:07:58.665Z,1014.2
2017-08-21T03:09:00.051Z,1014.2
2017-08-21T03:10:01.424Z,1014.2
2017-08-21T03:11:02.817Z,1014.2
2017-08-21T03:12:04.197Z,1014.2
2017-08-21T03:13:05.685Z,1014.2
2017-08-21T03:14:07.112Z,1014.2
2017-08-21T03:15:08.477Z,1014.1
2017-08-21T03:16:09.883Z,1014.2
2017-08-21T03:17:11.259Z,1014.1
2017-08-21T03:18:12.636Z,1014.2
2017-08-21T03:19:14.033Z,1014.2
2017-08-21T03:20:15.397Z,1014.2
2017-08-21T03:21:16.770Z,1014.3
2017-08-21T03:22:18.148Z,1014.3
2017-08-21T03:23:19.538Z,1014.3
2017-08-21T03:24:20.982Z,1014.3
2017-08-21T03:25:22.344Z,1014.3
2017-08-21T03:26:23.730Z,1014.3
2017-08-21T03:27:25.106Z,1014.3
2017-08-21T03:28:26.479Z,1014.3
2017-08-21T03:29:27.887Z,1014.3
2017-08-21T03:30:29.276Z,1014.3
2017-08-21T03:31:30.653Z,1014.4
2017-08-21T03:32:32.032Z,1014.3
2017-08-21T03:33:33.405Z,1014.3
2017-08-21T03:34:34.787Z,1014.3
2017-08-21T03:35:36.162Z,1014.3
2017-08-21T03:36:37.539Z,1014.3
2017-08-21T03:37:38.915Z,1014.3
2017-08-21T03:38:40.287Z,1014.3
2017-08-21T03:39:41.667Z,1014.3
2017-08-21T03:40:43.046Z,1014.3
2017-08-21T03:41:44.429Z,1014.3
2017-08-21T03:42:45.810Z,1014.3
2017-08-21T03:43:47.180Z,1014.3
2017-08-21T03:44:48.561Z,1014.3
2017-08-21T03:45:49.967Z,1014.3
2017-08-21T03:46:51.360Z,1014.3
2017-08-21T03:47:52.739Z,1014.3
2017-08-21T03:48:54.118Z,1014.3
2017-08-21T03:49:55.494Z,1014.4
2017-08-21T03:50:56.868Z,1014.4
2017-08-21T03:51:58.247Z,1014.4
2017-08-21T03:52:59.624Z,1014.3
2017-08-21T03:54:01.011Z,1014.4
2017-08-21T03:55:02.381Z,1014.4
2017-08-21T03:56:03.791Z,1014.4
2017-08-21T03:57:05.234Z,1014.4
2017-08-21T03:58:06.605Z,1014.4
2017-08-21T03:59:07.984Z,1014.4
2017-08-21T04:00:09.364Z,1014.4
2017-08-21T04:01:10.747Z,1014.4
2017-08-21T04:02:12.124Z,1014.4
2017-08-21T04:03:13.520Z,1014.4
2017-08-21T04:04:14.892Z,1014.4
2017-08-21T04:05:16.269Z,1014.4
2017-08-21T04:06:17.648Z,1014.5
2017-08-21T04:07:19.028Z,1014.4
2017-08-21T04:08:20.406Z,1014.4
2017-08-21T04:09:21.784Z,1014.4
2017-08-21T04:10:23.159Z,1014.4
2017-08-21T04:11:24.538Z,1014.4
2017-08-21T04:12:25.919Z,1014.4
2017-08-21T04:13:27.296Z,1014.4
2017-08-21T04:14:28.674Z,1014.4
2017-08-21T04:15:30.049Z,1014.4
2017-08-21T04:16:31.428Z,1014.3
2017-08-21T04:17:32.804Z,1014.4
2017-08-21T04:18:34.181Z,1014.3
2017-08-21T04:19:35.557Z,1014.3
2017-08-21T04:20:36.934Z,1014.3
2017-08-21T04:21:38.312Z,1014.3
2017-08-21T04:22:39.697Z,1014.4
2017-08-21T04:23:41.071Z,1014.3
2017-08-21T04:24:42.452Z,1014.4
2017-08-21T04:25:43.824Z,1014.4
2017-08-21T04:26:45.211Z,1014.4
2017-08-21T04:27:46.587Z,1014.4
2017-08-21T04:28:47.967Z,1014.4
2017-08-21T04:29:49.349Z,1014.4
2017-08-21T04:30:50.726Z,1014.4
2017-08-21T04:31:52.106Z,1014.5
2017-08-21T04:32:53.481Z,1014.4
2017-08-21T04:33:54.880Z,1014.5
2017-08-21T04:34:56.253Z,1014.5
2017-08-21T04:35:57.641Z,1014.5
2017-08-21T04:36:59.011Z,1014.5
2017-08-21T04:38:00.407Z,1014.5
2017-08-21T04:39:01.775Z,1014.5
2017-08-21T04:40:03.152Z,1014.5
2017-08-21T04:41:04.529Z,1014.5
2017-08-21T04:42:05.909Z,1014.5
2017-08-21T04:43:07.300Z,1014.5
2017-08-21T04:44:08.680Z,1014.5
2017-08-21T04:45:10.097Z,1014.5
2017-08-21T04:46:11.473Z,1014.5
2017-08-21T04:47:12.871Z,1014.5
2017-08-21T04:48:14.305Z,1014.5
2017-08-21T04:49:15.719Z,1014.5
2017-08-21T04:50:17.107Z,1014.5
2017-08-21T04:51:18.478Z,1014.5
2017-08-21T04:52:19.861Z,1014.4
2017-08-21T04:53:21.257Z,1014.5
2017-08-21T04:54:22.624Z,1014.5
2017-08-21T04:55:24.007Z,1014.5
2017-08-21T04:56:25.392Z,1014.6
2017-08-21T04:57:26.776Z,1014.6
2017-08-21T04:58:28.153Z,1014.5
2017-08-21T04:59:29.541Z,1014.6
2017-08-21T05:00:30.921Z,1014.6
2017-08-21T05:01:32.302Z,1014.6
2017-08-21T05:02:33.689Z,1014.6
2017-08-21T05:03:35.066Z,1014.6
2017-08-21T05:04:36.446Z,1014.6
2017-08-21T05:05:37.892Z,1014.6
2017-08-21T05:06:39.401Z,1014.6
2017-08-21T05:07:40.766Z,1014.6
2017-08-21T05:08:42.147Z,1014.6
2017-08-21T05:09:43.530Z,1014.6
2017-08-21T05:10:44.908Z,1014.6
2017-08-21T05:11:46.294Z,1014.6
2017-08-21T05:12:47.682Z,1014.6
2017-08-21T05:13:49.058Z,1014.6
2017-08-21T05:14:50.437Z,1014.6
2017-08-21T05:15:51.821Z,1014.5
2017-08-21T05:16:53.202Z,1014.6
2017-08-21T05:17:54.588Z,1014.6
2017-08-21T05:18:55.964Z,1014.6
2017-08-21T05:19:57.344Z,1014.7
2017-08-21T05:20:58.726Z,1014.7
2017-08-21T05:22:00.138Z,1014.7
2017-08-21T05:23:01.518Z,1014.7
2017-08-21T05:24:02.899Z,1014.7
2017-08-21T05:25:04.280Z,1014.7
2017-08-21T05:26:05.665Z,1014.7
2017-08-21T05:27:07.136Z,1014.7
2017-08-21T05:28:08.513Z,1014.7
2017-08-21T05:29:09.902Z,1014.7
2017-08-21T05:30:11.286Z,1014.6
2017-08-21T05:31:12.664Z,1014.7
2017-08-21T05:32:14.059Z,1014.7
2017-08-21T05:33:15.444Z,1014.7
2017-08-21T05:34:16.825Z,1014.7
2017-08-21T05:35:18.207Z,1014.7
2017-08-21T05:36:19.607Z,1014.7
2017-08-21T05:37:20.971Z,1014.7
2017-08-21T05:38:22.352Z,1014.8
2017-08-21T05:39:23.732Z,1014.7
2017-08-21T05:40:25.115Z,1014.8
2017-08-21T05:41:26.497Z,1014.7
2017-08-21T05:42:27.881Z,1014.8
2017-08-21T05:43:29.272Z,1014.8
2017-08-21T05:44:30.672Z,1014.8
2017-08-21T05:45:32.056Z,1014.8
2017-08-21T05:46:33.443Z,1014.8
2017-08-21T05:47:34.824Z,1014.8
2017-08-21T05:48:36.211Z,1014.8
2017-08-21T05:49:37.591Z,1014.8
2017-08-21T05:50:38.984Z,1014.8
2017-08-21T05:51:40.363Z,1014.8
2017-08-21T05:52:41.746Z,1014.9
2017-08-21T05:53:43.193Z,1014.8
2017-08-21T05:54:44.612Z,1014.9
2017-08-21T05:55:45.976Z,1014.9
2017-08-21T05:56:47.357Z,1014.9
2017-08-21T05:57:48.742Z,1014.9
2017-08-21T05:58:50.131Z,1014.9
2017-08-21T05:59:51.514Z,1014.9
2017-08-21T06:00:52.895Z,1014.9
2017-08-21T06:01:54.285Z,1015.0
2017-08-21T06:02:55.670Z,1014.9
2017-08-21T06:03:57.053Z,1015.0
2017-08-21T06:04:58.434Z,1015.0
2017-08-21T06:05:59.818Z,1015.0
2017-08-21T06:07:01.205Z,1015.0
2017-08-21T06:08:02.589Z,1015.0
2017-08-21T06:09:03.971Z,1015.0
2017-08-21T06:10:05.575Z,1015.1
2017-08-21T06:11:06.948Z,1015.0
2017-08-21T06:12:08.337Z,1015.1
2017-08-21T06:13:09.716Z,1015.1
2017-08-21T06:14:11.101Z,1015.0
2017-08-21T06:15:12.483Z,1015.0
2017-08-21T06:16:13.867Z,1015.0
2017-08-21T06:17:15.255Z,1015.1
2017-08-21T06:18:16.636Z,1015.1
2017-08-21T06:19:18.017Z,1015.1
2017-08-21T06:20:19.399Z,1015.1
2017-08-21T06:21:20.782Z,1015.1
2017-08-21T06:22:22.165Z,1015.1
2017-08-21T06:23:23.548Z,1015.1
2017-08-21T06:24:24.933Z,1015.2
2017-08-21T06:25:26.318Z,1015.2
2017-08-21T06:26:27.700Z,1015.2
2017-08-21T06:27:29.080Z,1015.2
2017-08-21T06:28:30.467Z,1015.2
2017-08-21T06:29:31.850Z,1015.2
2017-08-21T06:30:33.233Z,1015.2
2017-08-21T06:31:34.621Z,1015.3
2017-08-21T06:32:35.999Z,1015.3
2017-08-21T06:33:37.387Z,1015.3
2017-08-21T06:34:38.766Z,1015.3
2017-08-21T06:35:40.159Z,1015.3
2017-08-21T06:36:41.550Z,1015.3
2017-08-21T06:37:42.934Z,1015.3
2017-08-21T06:38:44.325Z,1015.3
2017-08-21T06:39:45.722Z,1015.3
2017-08-21T06:40:47.103Z,1015.3
2017-08-21T06:41:48.485Z,1015.3
2017-08-21T06:42:49.880Z,1015.3
2017-08-21T06:43:51.257Z,1015.3
2017-08-21T06:44:52.644Z,1015.3
2017-08-21T06:45:54.030Z,1015.3
2017-08-21T06:46:55.421Z,1015.4
2017-08-21T06:47:56.803Z,1015.4
2017-08-21T06:48:58.188Z,1015.4
2017-08-21T06:49:59.575Z,1015.4
2017-08-21T06:51:00.964Z,1015.4
2017-08-21T06:52:02.346Z,1015.5
2017-08-21T06:53:03.736Z,1015.6
2017-08-21T06:54:05.136Z,1015.7
2017-08-21T06:55:06.518Z,1015.8
2017-08-21T06:56:07.908Z,1016.0
2017-08-21T06:57:09.294Z,1016.1
2017-08-21T06:58:10.687Z,1016.0
2017-08-21T06:59:12.078Z,1015.8
2017-08-21T07:00:13.469Z,1015.7
2017-08-21T07:01:14.872Z,1015.7
2017-08-21T07:02:16.260Z,1015.7
2017-08-21T07:03:17.654Z,1015.7
2017-08-21T07:04:19.039Z,1015.6
2017-08-21T07:05:20.442Z,1015.6
2017-08-21T07:06:21.832Z,1015.6
2017-08-21T07:07:23.214Z,1015.6
2017-08-21T07:08:24.606Z,1015.6
2017-08-21T07:09:25.995Z,1015.6
2017-08-21T07:10:27.383Z,1015.6
2017-08-21T07:11:28.772Z,1015.6
2017-08-21T07:12:30.188Z,1015.6
2017-08-21T07:13:31.564Z,1015.6
2017-08-21T07:14:32.956Z,1015.6
2017-08-21T07:15:34.347Z,1015.6
2017-08-21T07:16:35.735Z,1015.6
2017-08-21T07:17:37.128Z,1015.7
2017-08-21T07:18:38.527Z,1015.7
2017-08-21T07:19:39.926Z,1015.7
2017-08-21T07:20:41.316Z,1015.7
2017-08-21T07:21:42.706Z,1015.7
2017-08-21T07:22:44.096Z,1015.7
2017-08-21T07:23:45.491Z,1015.7
2017-08-21T07:24:46.882Z,1015.7
2017-08-21T07:25:48.274Z,1015.7
2017-08-21T07:26:49.669Z,1015.7
2017-08-21T07:27:51.061Z,1015.7
2017-08-21T07:28:52.456Z,1015.8
2017-08-21T07:29:53.850Z,1015.8
2017-08-21T07:30:55.253Z,1015.8
2017-08-21T07:31:56.648Z,1015.8
2017-08-21T07:32:58.033Z,1015.8
2017-08-21T07:33:59.424Z,1015.9
2017-08-21T07:35:00.817Z,1016.0
2017-08-21T07:36:02.210Z,1016.0
2017-08-21T07:37:03.602Z,1015.9
2017-08-21T07:38:04.992Z,1015.9
2017-08-21T07:39:06.384Z,1015.9
2017-08-21T07:40:07.775Z,1016.0
2017-08-21T07:41:09.168Z,1016.0
2017-08-21T07:42:10.562Z,1016.0
2017-08-21T07:43:11.955Z,1016.0
2017-08-21T07:44:13.347Z,1016.1
2017-08-21T07:45:14.740Z,1016.1
2017-08-21T07:46:16.134Z,1016.2
2017-08-21T07:47:17.521Z,1016.1
2017-08-21T07:48:18.919Z,1016.2
2017-08-21T07:49:20.312Z,1016.1
2017-08-21T07:50:21.709Z,1016.2
2017-08-21T07:51:23.103Z,1016.2
2017-08-21T07:53:05.506Z,1016.2
2017-08-21T07:54:06.893Z,1016.2
2017-08-21T07:55:08.287Z,1016.2
2017-08-21T07:56:09.679Z,1016.2
2017-08-21T07:57:11.075Z,1016.2
2017-08-21T07:58:12.470Z,1016.3
2017-08-21T07:59:13.862Z,1016.3
2017-08-21T08:00:15.258Z,1016.3
2017-08-21T08:01:16.649Z,1016.3
2017-08-21T08:02:18.044Z,1016.3
2017-08-21T08:03:19.435Z,1016.2
2017-08-21T08:04:20.830Z,1016.3
2017-08-21T08:05:22.225Z,1016.3
2017-08-21T08:06:23.619Z,1016.2
2017-08-21T08:07:25.047Z,1016.3
2017-08-21T08:09:06.446Z,1016.2
2017-08-21T08:10:07.838Z,1016.2
2017-08-21T08:11:29.875Z,1016.2
2017-08-21T08:12:31.247Z,1016.3
2017-08-21T08:13:54.268Z,1016.2
2017-08-21T08:14:55.656Z,1016.0
2017-08-21T08:15:57.049Z,1015.9
2017-08-21T08:16:58.444Z,1015.9
2017-08-21T08:17:59.841Z,1015.8
2017-08-21T08:19:01.236Z,1015.8
2017-08-21T08:20:02.632Z,1015.8
2017-08-21T08:21:04.030Z,1015.8
2017-08-21T08:22:05.428Z,1015.9
2017-08-21T08:23:06.820Z,1015.8
2017-08-21T08:24:48.216Z,1015.9
2017-08-21T08:25:49.616Z,1015.8
2017-08-21T08:27:11.628Z,1015.8
2017-08-21T08:28:13.022Z,1015.8
2017-08-21T08:29:35.039Z,1015.8
2017-08-21T08:30:36.432Z,1015.8
2017-08-21T08:31:37.826Z,1015.8
2017-08-21T08:32:39.223Z,1015.7
2017-08-21T08:33:40.615Z,1015.7
2017-08-21T08:34:42.017Z,1015.8
2017-08-21T08:35:43.406Z,1015.8
2017-08-21T08:36:44.806Z,1015.8
2017-08-21T08:37:46.197Z,1015.8
2017-08-21T08:38:47.594Z,1015.8
2017-08-21T08:39:48.993Z,1015.8
2017-08-21T08:40:50.390Z,1015.8
2017-08-21T08:41:51.791Z,1015.8
2017-08-21T08:42:53.204Z,1015.8
2017-08-21T08:43:54.587Z,1015.8
2017-08-21T08:44:55.983Z,1015.9
2017-08-21T08:45:57.383Z,1015.8
2017-08-21T08:46:58.772Z,1015.8
2017-08-21T08:48:00.174Z,1015.8
2017-08-21T08:49:01.566Z,1015.8
2017-08-21T08:50:02.963Z,1015.9
2017-08-21T08:51:04.368Z,1015.8
2017-08-21T08:52:05.764Z,1015.7
2017-08-21T08:53:07.159Z,1015.8
2017-08-21T08:54:08.552Z,1015.8
2017-08-21T08:55:09.950Z,1015.9
2017-08-21T08:56:11.343Z,1015.9
2017-08-21T08:57:12.738Z,1016.0
2017-08-21T08:58:14.136Z,1016.4
2017-08-21T08:59:15.534Z,1016.6
2017-08-21T09:00:16.927Z,1015.8
2017-08-21T09:01:18.322Z,1016.8
2017-08-21T09:02:19.710Z,1016.9
2017-08-21T09:03:21.113Z,1016.8
2017-08-21T09:04:22.509Z,1016.8
2017-08-21T09:05:23.918Z,1016.9
2017-08-21T09:06:25.310Z,1016.9
2017-08-21T09:07:26.703Z,1016.9
2017-08-21T09:08:28.101Z,1016.9
2017-08-21T09:09:29.494Z,1016.9
2017-08-21T09:10:30.916Z,1016.8
2017-08-21T09:11:32.315Z,1016.8
2017-08-21T09:12:33.707Z,1016.8
2017-08-21T09:13:35.112Z,1016.8
2017-08-21T09:14:36.506Z,1016.7
2017-08-21T09:15:37.902Z,1016.7
2017-08-21T09:16:39.304Z,1016.7
2017-08-21T09:17:40.700Z,1016.6
2017-08-21T09:18:42.099Z,1016.5
2017-08-21T09:19:43.497Z,1016.5
2017-08-21T09:20:44.894Z,1016.5
2017-08-21T09:21:46.290Z,1016.4
2017-08-21T09:22:47.687Z,1016.5
2017-08-21T09:23:49.088Z,1016.4
2017-08-21T09:24:50.481Z,1016.4
2017-08-21T09:25:51.880Z,1016.4
2017-08-21T09:26:53.281Z,1016.4
2017-08-21T09:27:54.672Z,1016.4
2017-08-21T09:28:56.078Z,1016.4
2017-08-21T09:29:57.477Z,1016.4
2017-08-21T09:30:58.880Z,1016.4
2017-08-21T09:32:00.274Z,1016.5
2017-08-21T09:33:01.674Z,1016.5
2017-08-21T09:34:03.073Z,1016.4
2017-08-21T09:35:04.463Z,1016.4
2017-08-21T09:36:05.877Z,1016.4
2017-08-21T09:37:07.277Z,1016.4
2017-08-21T09:38:08.675Z,1016.4
2017-08-21T09:39:10.088Z,1016.3
2017-08-21T09:40:11.484Z,1016.4
2017-08-21T09:41:12.890Z,1016.4
2017-08-21T09:42:14.288Z,1016.4
2017-08-21T09:43:15.697Z,1015.9
2017-08-21T09:44:17.094Z,1016.0
2017-08-21T09:45:18.494Z,1016.4
2017-08-21T09:46:19.894Z,1016.1
2017-08-21T09:47:21.296Z,1015.9
2017-08-21T09:48:22.709Z,1015.9
2017-08-21T09:49:24.106Z,1016.1
2017-08-21T09:50:25.514Z,1016.0
2017-08-21T09:51:26.910Z,1016.0
2017-08-21T09:52:28.309Z,1015.9
2017-08-21T09:53:29.704Z,1015.9
2017-08-21T09:54:31.104Z,1015.9
2017-08-21T09:55:32.501Z,1015.9
2017-08-21T09:56:33.890Z,1015.9
2017-08-21T09:57:35.304Z,1015.9
2017-08-21T09:58:36.695Z,1015.9
2017-08-21T09:59:38.089Z,1016.2
2017-08-21T10:01:19.477Z,1015.8
2017-08-21T10:02:20.879Z,1015.8
2017-08-21T10:03:22.276Z,1016.0
2017-08-21T10:04:23.665Z,1016.1
2017-08-21T10:05:25.075Z,1016.1
2017-08-21T10:06:26.476Z,1015.9
2017-08-21T10:07:27.872Z,1016.1
2017-08-21T10:08:29.269Z,1016.1
2017-08-21T10:09:30.674Z,1016.1
2017-08-21T10:10:32.128Z,1016.1
2017-08-21T10:11:33.525Z,1016.1
2017-08-21T10:12:34.922Z,1016.2
2017-08-21T10:13:36.323Z,1016.1
2017-08-21T10:14:37.719Z,1016.1
2017-08-21T10:15:39.118Z,1016.1
2017-08-21T10:17:20.512Z,1016.2
2017-08-21T10:18:21.906Z,1016.2
2017-08-21T10:19:44.928Z,1016.3
2017-08-21T10:20:46.325Z,1016.2
2017-08-21T10:21:47.723Z,1015.9
2017-08-21T10:22:49.119Z,1015.9
2017-08-21T10:23:50.515Z,1016.0
2017-08-21T10:24:51.925Z,1015.7
2017-08-21T10:25:53.329Z,1015.7
2017-08-21T10:26:54.731Z,1016.0
2017-08-21T10:27:56.134Z,1016.0
2017-08-21T10:28:57.534Z,1016.1
2017-08-21T10:29:58.930Z,1016.1
2017-08-21T10:31:00.333Z,1016.1
2017-08-21T10:32:01.737Z,1016.1
2017-08-21T10:33:44.133Z,1015.9
2017-08-21T10:34:45.558Z,1015.9
2017-08-21T10:35:46.944Z,1015.7
2017-08-21T10:36:48.340Z,1015.6
2017-08-21T10:37:49.738Z,1015.7
2017-08-21T10:38:51.148Z,1015.7
2017-08-21T10:39:52.547Z,1015.8
2017-08-21T10:40:53.949Z,1015.7
2017-08-21T10:41:55.346Z,1015.7
2017-08-21T10:42:56.743Z,1016.0
2017-08-21T10:43:58.148Z,1016.0
2017-08-21T10:44:59.547Z,1015.7
2017-08-21T10:46:00.946Z,1015.6
2017-08-21T10:47:02.357Z,1015.7
2017-08-21T10:48:03.757Z,1015.7
2017-08-21T10:49:46.151Z,1015.6
2017-08-21T10:50:47.544Z,1015.7
2017-08-21T10:51:48.943Z,1015.6
2017-08-21T10:52:50.331Z,1015.5
2017-08-21T10:53:51.740Z,1015.5
2017-08-21T10:54:53.138Z,1015.5
2017-08-21T10:55:54.539Z,1015.7
2017-08-21T10:56:55.936Z,1015.6
2017-08-21T10:57:57.332Z,1015.6
2017-08-21T10:58:58.730Z,1015.6
2017-08-21T11:00:00.126Z,1015.8
2017-08-21T11:01:01.545Z,1015.6
2017-08-21T11:02:02.942Z,1015.8
2017-08-21T11:03:04.342Z,1015.8
2017-08-21T11:04:05.751Z,1015.7
2017-08-21T11:05:48.137Z,1015.7
2017-08-21T11:06:49.533Z,1015.7
2017-08-21T11:07:50.959Z,1015.7
2017-08-21T11:08:52.358Z,1015.6
2017-08-21T11:09:53.759Z,1015.6
2017-08-21T11:10:55.158Z,1015.6
2017-08-21T11:11:56.573Z,1015.6
2017-08-21T11:12:57.970Z,1015.5
2017-08-21T11:13:59.366Z,1015.5
2017-08-21T11:15:00.765Z,1015.5
2017-08-21T11:16:02.160Z,1015.5
2017-08-21T11:17:03.568Z,1015.6
2017-08-21T11:18:04.956Z,1015.5
2017-08-21T11:19:06.367Z,1015.5
2017-08-21T11:20:07.766Z,1015.7
2017-08-21T11:21:09.163Z,1015.7
2017-08-21T11:22:10.559Z,1015.7
2017-08-21T11:23:11.965Z,1015.5
2017-08-21T11:24:13.359Z,1015.4
2017-08-21T11:25:14.759Z,1015.4
2017-08-21T11:26:16.157Z,1015.4
2017-08-21T11:27:17.558Z,1015.4
2017-08-21T11:28:18.956Z,1015.3
2017-08-21T11:29:20.360Z,1015.4
2017-08-21T11:30:21.749Z,1015.4
2017-08-21T11:31:23.140Z,1015.3
2017-08-21T11:32:24.548Z,1015.3
2017-08-21T11:33:25.949Z,1015.4
2017-08-21T11:34:27.347Z,1015.3
2017-08-21T11:35:28.749Z,1015.3
2017-08-21T11:36:30.140Z,1015.4
2017-08-21T11:37:31.550Z,1015.2
2017-08-21T11:38:32.957Z,1015.3
2017-08-21T11:39:34.347Z,1015.4
2017-08-21T11:40:35.760Z,1015.4
2017-08-21T11:41:37.145Z,1015.3
2017-08-21T11:42:38.542Z,1015.3
2017-08-21T11:43:39.935Z,1015.3
2017-08-21T11:44:41.345Z,1015.4
2017-08-21T11:45:42.746Z,1015.3
2017-08-21T11:46:44.142Z,1015.3
2017-08-21T11:47:45.557Z,1015.3
2017-08-21T11:48:46.958Z,1015.3
2017-08-21T11:49:48.353Z,1015.3
2017-08-21T11:50:49.752Z,1015.2
2017-08-21T11:51:51.160Z,1015.3
2017-08-21T11:52:52.565Z,1015.1
2017-08-21T11:53:53.960Z,1015.0
2017-08-21T11:54:55.384Z,1015.0
2017-08-21T11:55:56.771Z,1015.1
2017-08-21T11:56:58.171Z,1015.1
2017-08-21T11:57:59.575Z,1015.1
2017-08-21T11:59:00.990Z,1015.1
2017-08-21T12:00:02.394Z,1015.0
2017-08-21T12:01:03.798Z,1015.1
2017-08-21T12:02:05.201Z,1015.1
2017-08-21T12:03:06.602Z,1015.0
2017-08-21T12:04:08.005Z,1015.0
2017-08-21T12:05:09.403Z,1015.0
2017-08-21T12:06:10.793Z,1015.1
2017-08-21T12:07:12.205Z,1015.1
2017-08-21T12:08:13.609Z,1015.1
2017-08-21T12:09:15.013Z,1015.0
2017-08-21T12:10:16.416Z,1014.9
2017-08-21T12:11:17.812Z,1014.8
2017-08-21T12:12:19.215Z,1014.8
2017-08-21T12:13:20.629Z,1014.9
2017-08-21T12:14:22.033Z,1014.9
2017-08-21T12:15:23.451Z,1014.9
2017-08-21T12:16:24.836Z,1014.9
2017-08-21T12:17:26.241Z,1014.9
2017-08-21T12:18:27.641Z,1014.9
2017-08-21T12:19:29.040Z,1015.0
2017-08-21T12:20:30.478Z,1014.9
2017-08-21T12:21:31.885Z,1014.9
2017-08-21T12:22:33.289Z,1015.0
2017-08-21T12:23:34.696Z,1014.8
2017-08-21T12:24:36.105Z,1014.8
2017-08-21T12:25:37.505Z,1014.8
2017-08-21T12:26:38.906Z,1014.8
2017-08-21T12:27:40.305Z,1014.8
2017-08-21T12:28:41.713Z,1014.8
2017-08-21T12:29:43.120Z,1014.8
2017-08-21T12:30:44.517Z,1014.8
2017-08-21T12:31:45.948Z,1014.8
2017-08-21T12:32:47.358Z,1014.8
2017-08-21T12:33:48.757Z,1014.8
2017-08-21T12:34:50.164Z,1014.8
2017-08-21T12:35:51.557Z,1014.7
2017-08-21T12:36:52.948Z,1014.7
2017-08-21T12:37:54.359Z,1014.7
2017-08-21T12:38:55.758Z,1014.7
2017-08-21T12:40:37.165Z,1014.7
2017-08-21T12:41:38.558Z,1014.8
2017-08-21T12:42:39.955Z,1014.7
2017-08-21T12:43:41.358Z,1014.8
2017-08-21T12:44:42.750Z,1014.8
2017-08-21T12:45:44.146Z,1014.8
2017-08-21T12:46:45.544Z,1014.8
2017-08-21T12:47:46.946Z,1014.7
2017-08-21T12:48:48.340Z,1014.7
2017-08-21T12:49:49.738Z,1014.7
2017-08-21T12:50:51.129Z,1014.8
2017-08-21T12:51:52.526Z,1014.8
2017-08-21T12:52:53.921Z,1014.8
2017-08-21T12:53:55.320Z,1014.9